Accueil
METAR-TAF:

METAR-TAF

Aéroports :

Aéroport de Shoreham

Brighton, Angleterre

latitude: 50-50N, longitude: 000-17W, altitude: 2 m

Observation

Le bulletin a été fait il y a 11 heures et 17 minutes, à 18:50 UTC
Vent 7 kt de nord
Température 16°C
Humidité 82%
Pression 1021 hPa
Visibilité 10 km ou plus
Quelques nuages à une hauteur de 4500 ft

METAR: EGKA 231850Z 36007KT 9999 FEW045 16/13 Q1021

Heure: 07:07 (06:07 UTC)

Prévision

Le bulletin a été fait il y a 11 heures et 24 minutes, à 18:43 UTC
Prévision valable du 23 à 18 UTC au 23 à 19 UTC
Vent 12 kt de nord
Visibilité: 9000 m
Quelques nuages à une hauteur de 4500 ft

TAF: EGKA 231843Z 2318/2319 35012KT 9000 FEW045

Observations et prévisions météorologiques de plus de 4000 aéroports (messages METAR et TAF).

Les stations disponibles sont représentées par des disques jaunes et rouges sur la carte.

Passer la souris dessus pour voir le nom de la station.

Cliquer dessus pour voir les observations et prévisions météorologiques.

Pour changer de carte: cliquez sur les boutons verts avec une croix noire pour zoomer, sur le bouton vert avec un tiret pour effectuer un zoom arrière, ou sur les flèches vertes pour les cartes adjacentes.


METAR-TAF: